Latest Coastal Weather Observations for Tasman Island

IDT60701

Issued at 12:52 pm EDT Sunday 14 February 2016 (issued every 10 minutes, with the page automatically refreshed every 10 minutes)

About coastal observations | Map of coastal stations | Coastal observations for TAS | Marine services | Other Formats
Station Details ID: 094155 Name: TASMAN ISLAND Lat: -43.24 Lon: 148.00 Height: 240.0 m
Data from the previous 72 hours. | See also: Recent months at Tasman Island
Date/Time
EDT
Temp

°C
Wind Pressure Rain
since 9am
mm
Weather Cloud Vis
km
Sea
Height
m
Swell
Dir
 
Speed
knots
Gust
knots
hPa Trend Height
m
Period
s
Dir
14/12:30pm 17.1 NW 17 32 1000.3 - 0.0 - - - - - - -
14/12:02pm 17.3 WNW 15 25 1000.7 - 0.0 - - - - - - -
14/12:00pm 17.4 NW 14 25 1000.7 - 0.0 - - - - - - -
14/11:30am 16.8 NW 16 25 1000.8 - 0.0 - - - - - - -
14/11:00am 16.3 NW 20 31 1001.0 - 0.0 - - - - - - -
14/10:30am 16.7 NW 20 30 1001.3 - 0.0 - - - - - - -
14/10:04am 16.6 NW 23 34 1001.3 - 0.0 - - - - - - -
14/10:00am 16.6 NW 23 33 1001.3 - 0.0 - - - - - - -
14/09:40am 15.9 WNW 16 26 1001.3 - 0.0 - - - - - - -
14/09:30am 16.0 WNW 16 26 1001.4 - 0.0 - - - - - - -
14/09:00am 15.8 NW 14 20 1001.7 - - - - - - - - -
14/08:30am 14.1 NW 16 23 1001.7 - - - - - - - - -
14/08:15am 14.2 NW 16 27 1001.6 - - - - - - - - -
14/08:00am 14.0 NW 14 24 1001.6 - - - - - - - - -
14/07:30am 13.9 NW 13 20 1001.3 - - - - - - - - -
14/07:00am 13.7 NW 14 23 1001.3 - - - - - - - - -
14/06:30am 13.5 NW 14 21 1000.9 - - - - - - - - -
14/06:00am 13.5 NW 15 22 1000.8 - - - - - - - - -
14/05:30am 13.6 NW 17 26 1000.8 - - - - - - - - -
14/05:00am 13.7 NW 15 22 1000.9 - - - - - - - - -
14/04:30am 13.8 WNW 10 20 1000.8 - - - - - - - - -
14/04:00am 14.3 NW 16 29 1000.8 - - - - - - - - -
14/03:30am 14.3 NW 18 29 1001.2 - - - - - - - - -
14/03:23am 14.1 NW 15 27 1001.2 - - - - - - - - -
14/03:00am 14.1 WNW 6 21 1001.3 - 0.2 - - - - - - -
14/02:30am 14.3 NW 8 18 1001.7 - - - - - - - - -
14/02:00am 14.3 WNW 7 17 1001.8 - - - - - - - - -
14/01:30am 14.4 WNW 6 20 1001.7 - - - - - - - - -
14/01:00am 14.7 NW 7 18 1002.1 - - - - - - - - -
14/12:30am 14.8 WNW 7 23 1001.9 - - - - - - - - -
14/12:00am 14.7 W 6 23 1001.7 - - - - - - - - -
 
Date/Time
EDT
Temp

°C
Wind Pressure Rain
since 9am
mm
Weather Cloud Vis
km
Sea
Height
m
Swell
Dir
 
Speed
knots
Gust
knots
hPa Trend Height
m
Period
s
Dir
13/11:30pm 14.5 SSW 13 24 1002.2 - - - - - - - - -
13/11:00pm 14.4 SW 18 31 1002.4 - - - - - - - - -
13/10:33pm 13.8 SW 18 28 1002.9 - - - - - - - - -
13/10:30pm 13.9 SW 20 28 1002.8 - - - - - - - - -
13/10:03pm 14.7 SW 19 29 1002.8 - - - - - - - - -
13/10:00pm 14.7 SW 19 29 1002.8 - - - - - - - - -
13/09:30pm 14.7 SW 21 33 1002.1 - - - - - - - - -
13/09:24pm 14.9 SW 20 31 1001.8 - - - - - - - - -
13/09:00pm 14.6 SW 19 28 1001.8 - - - - - - - - -
13/08:30pm 15.1 SSW 15 30 1001.8 - - - - - - - - -
13/08:08pm 15.3 SSW 15 25 1001.9 - - - - - - - - -
13/08:00pm 15.1 SSW 13 22 1001.8 - - - - - - - - -
13/07:30pm 14.8 SSW 12 23 1001.6 - - - - - - - - -
13/07:00pm 14.9 SSW 18 28 1001.4 - 0.0 - - - - - - -
13/06:46pm 15.7 SSW 16 27 1001.3 - 0.0 - - - - - - -
13/06:30pm 16.9 SSW 15 21 1001.1 - 0.0 - - - - - - -
13/06:29pm 17.1 SSW 15 21 1001.1 - 0.0 - - - - - - -
13/06:00pm 21.1 W 5 9 1000.8 - 0.0 - - - - - - -
13/05:30pm 20.4 N 2 4 1001.0 - 0.0 - - - - - - -
13/05:00pm 20.0 NNE 3 6 1001.3 - 0.0 - - - - - - -
13/04:30pm 21.4 NE 6 9 1001.6 - 0.0 - - - - - - -
13/04:00pm 21.4 NNE 7 10 1001.8 - 0.0 - - - - - - -
13/03:30pm 21.0 NE 7 12 1001.9 - 0.0 - - - - - - -
13/03:00pm 21.7 NE 6 10 1002.0 - 0.0 - - - - - - -
13/02:30pm 21.2 NE 6 12 1002.2 - 0.0 - - - - - - -
13/02:00pm 21.4 NE 8 14 1002.4 - 0.0 - - - - - - -
13/01:30pm 20.9 NNE 8 13 1002.8 - 0.0 - - - - - - -
13/01:00pm 20.6 NNE 9 14 1003.2 - 0.0 - - - - - - -
13/12:30pm 21.8 N 6 10 1003.7 - 0.0 - - - - - - -
13/12:00pm 21.7 NNE 8 11 1004.1 - 0.0 - - - - - - -
13/11:30am 20.6 NNE 10 13 1004.3 - 0.0 - - - - - - -
13/11:00am 20.8 NW 5 10 1004.5 - 0.0 - - - - - - -
13/10:30am 20.3 NW 10 15 1004.4 - 0.0 - - - - - - -
13/10:00am 18.4 NW 9 13 1004.9 - 0.0 - - - - - - -
13/09:30am 16.9 WNW 9 13 1005.0 - 0.0 - - - - - - -
13/09:00am 16.9 WNW 7 12 1005.1 - 0.0 - - - - - - -
13/08:30am 16.7 WNW 7 12 1005.1 - 0.0 - - - - - - -
13/08:00am 16.9 WNW 6 13 1004.9 - 0.0 - - - - - - -
13/07:30am 17.3 NW 11 17 1004.9 - 0.0 - - - - - - -
13/07:00am 17.2 NW 11 15 1004.7 - 0.0 - - - - - - -
13/06:30am 17.1 NW 8 13 1004.4 - 0.0 - - - - - - -
13/06:00am 16.8 N 12 17 1004.0 - 0.0 - - - - - - -
13/05:30am 16.7 N 9 14 1004.2 - 0.0 - - - - - - -
13/05:00am 16.7 NNW 9 15 1004.7 - 0.0 - - - - - - -
13/04:30am 16.4 NW 5 8 1005.5 - 0.0 - - - - - - -
13/04:00am 16.3 NNW 6 11 1005.3 - 0.0 - - - - - - -
13/03:30am 16.7 NNW 7 12 1005.8 - 0.0 - - - - - - -
13/03:00am 17.1 NW 7 11 1006.5 - 0.0 - - - - - - -
13/02:30am 17.8 NNW 12 20 1006.8 - 0.0 - - - - - - -
13/02:00am 17.9 N 13 19 1007.1 - 0.0 - - - - - - -
13/01:30am 18.3 N 14 21 1007.4 - 0.0 - - - - - - -
13/01:00am 18.3 N 18 24 1007.6 - 0.0 - - - - - - -
13/12:30am 18.2 N 18 25 1007.8 - 0.0 - - - - - - -
13/12:00am 18.3 N 21 28 1008.3 - 0.0 - - - - - - -
 
Date/Time
EDT
Temp

°C
Wind Pressure Rain
since 9am
mm
Weather Cloud Vis
km
Sea
Height
m
Swell
Dir
 
Speed
knots
Gust
knots
hPa Trend Height
m
Period
s
Dir
12/11:42pm 18.3 N 21 31 1008.5 - 0.0 - - - - - - -
12/11:30pm 18.2 N 21 31 1008.6 - 0.0 - - - - - - -
12/11:03pm 18.1 N 23 34 1009.1 - 0.0 - - - - - - -
12/11:00pm 18.0 N 24 33 1009.2 - 0.0 - - - - - - -
12/10:30pm 18.1 N 27 35 1009.4 - 0.0 - - - - - - -
12/10:04pm 18.1 N 28 39 1009.7 - 0.0 - - - - - - -
12/10:00pm 18.1 N 28 36 1009.7 - 0.0 - - - - - - -
12/09:33pm 18.1 N 25 37 1009.9 - 0.0 - - - - - - -
12/09:30pm 18.2 NNE 25 34 1010.0 - 0.0 - - - - - - -
12/09:08pm 18.1 NNE 25 35 1010.1 - 0.0 - - - - - - -
12/09:00pm 18.1 NNE 26 35 1010.3 - 0.0 - - - - - - -
12/08:30pm 18.2 NNE 29 39 1010.6 - 0.0 - - - - - - -
12/08:04pm 18.1 NNE 28 38 1010.9 - 0.0 - - - - - - -
12/08:00pm 18.0 NNE 29 38 1010.9 - 0.0 - - - - - - -
12/07:50pm 18.0 NNE 27 37 1010.9 - 0.0 - - - - - - -
12/07:30pm 18.0 NNE 26 34 1011.0 - 0.0 - - - - - - -
12/07:01pm 18.0 NNE 23 33 1011.5 - 0.0 - - - - - - -
12/07:00pm 18.1 NNE 23 31 1011.5 - 0.0 - - - - - - -
12/06:30pm 18.3 NNE 25 31 1011.7 - 0.0 - - - - - - -
12/06:00pm 18.5 NNE 25 33 1011.9 - 0.0 - - - - - - -
12/05:30pm 18.4 NNE 21 28 1012.1 - 0.0 - - - - - - -
12/05:00pm 18.4 NNE 18 31 1012.4 - 0.0 - - - - - - -
12/04:51pm 18.5 NNE 20 31 1012.5 - 0.0 - - - - - - -
12/04:30pm 18.8 NNE 22 28 1012.9 - 0.0 - - - - - - -
12/04:00pm 19.0 NNE 20 27 1013.6 - 0.0 - - - - - - -
12/03:30pm 19.3 NNE 17 22 1014.2 - 0.0 - - - - - - -
12/03:00pm 19.0 NNE 16 23 1014.6 - 0.0 - - - - - - -
12/02:30pm 19.1 NNE 16 23 1014.9 - 0.0 - - - - - - -
12/02:00pm 19.4 NNE 16 25 1015.3 - 0.0 - - - - - - -
12/01:30pm 18.6 NNE 16 23 1015.7 - 0.0 - - - - - - -
12/01:00pm 18.4 NNE 14 22 1016.1 - 0.0 - - - - - - -
12/12:30pm 17.7 NNE 13 20 1016.7 - 0.0 - - - - - - -
12/12:00pm 17.0 NNE 8 17 1016.8 - 0.0 - - - - - - -
12/11:30am 17.2 NNE 9 16 1017.3 - 0.0 - - - - - - -
12/11:00am 17.2 NE 8 16 1017.8 - 0.0 - - - - - - -
12/10:30am 17.8 NNE 9 16 1017.9 - 0.0 - - - - - - -
12/10:00am 17.1 NNE 7 12 1018.1 - 0.0 - - - - - - -
12/09:30am 15.5 NNE 9 14 1018.5 - 0.0 - - - - - - -
12/09:00am 15.5 NNE 9 13 1018.6 - 0.2 - - - - - - -
12/08:30am 15.0 NNE 8 11 1018.5 - 0.2 - - - - - - -
12/08:00am 14.7 NE 4 7 1018.5 - 0.2 - - - - - - -
12/07:30am 14.5 NE 4 8 1018.3 - 0.2 - - - - - - -
12/07:00am 14.2 NNE 7 12 1018.0 - 0.2 - - - - - - -
12/06:30am 14.0 NNE 9 12 1017.7 - 0.2 - - - - - - -
12/06:00am 14.0 NE 5 9 1017.7 - 0.2 - - - - - - -
12/05:30am 13.7 NE 3 5 1017.7 - 0.2 - - - - - - -
12/05:00am 13.6 NE 4 5 1017.8 - 0.2 - - - - - - -
12/04:30am 13.5 NNE 3 4 1017.9 - 0.2 - - - - - - -
12/04:00am 13.3 NNE 4 5 1017.9 - 0.2 - - - - - - -
12/03:30am 13.3 NNE 5 7 1018.1 - 0.2 - - - - - - -
12/03:00am 13.2 NNE 4 5 1018.1 - 0.2 Recent precip. - - - - - -
12/02:30am 13.3 NNE 2 3 1018.3 - 0.2 - - - - - - -
12/02:00am 14.3 NW 1 2 1018.7 - 0.0 - - - - - - -
12/01:30am 14.4 SW 2 3 1018.7 - 0.0 - - - - - - -
12/01:00am 14.4 SW 2 4 1018.9 - 0.0 - - - - - - -
12/12:30am 14.5 W 1 3 1018.9 - 0.0 - - - - - - -
12/12:00am 14.4 SSE 2 3 1018.9 - 0.0 - - - - - - -
 
Date/Time
EDT
Temp

°C
Wind Pressure Rain
since 9am
mm
Weather Cloud Vis
km
Sea
Height
m
Swell
Dir
 
Speed
knots
Gust
knots
hPa Trend Height
m
Period
s
Dir
11/11:30pm 14.4 SSW 3 5 1019.0 - 0.0 - - - - - - -
11/11:00pm 14.4 S 3 4 1019.0 - 0.0 - - - - - - -
11/10:30pm 14.5 S 3 5 1019.1 - 0.0 - - - - - - -
11/10:00pm 14.5 S 4 6 1019.2 - 0.0 - - - - - - -
11/09:30pm 14.5 SSW 4 6 1018.9 - 0.0 - - - - - - -
11/09:00pm 14.5 SSW 3 5 1018.7 - 0.0 - - - - - - -
11/08:30pm 14.4 SSW 3 6 1018.3 - 0.0 - - - - - - -
11/08:00pm 14.4 SSW 5 8 1018.1 - 0.0 - - - - - - -
11/07:30pm 15.1 S 5 7 1017.6 - 0.0 - - - - - - -
11/07:00pm 16.3 SSE 5 8 1017.5 - 0.0 - - - - - - -
11/06:30pm 16.1 S 6 9 1017.3 - 0.0 - - - - - - -
11/06:00pm 16.2 S 6 9 1017.2 - 0.0 - - - - - - -
11/05:30pm 16.5 S 7 11 1017.0 - 0.0 - - - - - - -
11/05:00pm 17.2 SSW 8 12 1017.0 - 0.0 - - - - - - -
11/04:30pm 17.2 SSW 9 14 1016.9 - 0.0 - - - - - - -
11/04:00pm 17.2 SSW 9 15 1016.9 - 0.0 - - - - - - -
11/03:30pm 17.4 SSW 11 16 1016.9 - 0.0 - - - - - - -
11/03:00pm 17.7 SSW 12 17 1016.8 - 0.0 - - - - - - -
11/02:30pm 17.2 SSW 11 16 1016.9 - 0.0 - - - - - - -
11/02:00pm 17.4 SSW 9 15 1016.9 - 0.0 - - - - - - -
11/01:30pm 17.7 SSW 9 15 1016.8 - 0.0 - - - - - - -
11/01:00pm 16.2 SSW 8 13 1016.8 - 0.0 - - - - - - -

Other Formats:

Comma delimited format used in spreadsheet applications
http://www.bom.gov.au/fwo/IDT60701/IDT60701.95986.axf

JavaScript Object Notation format (JSON) in row-major order
http://www.bom.gov.au/fwo/IDT60701/IDT60701.95986.json